Airfield :
LOGIN :

Register | Disclaimer

   EN    FR    IT 

 










Legend :    VFR   Marginal VFR   IFR   Intensive IFR   Very Intensive IFR
Visi :
Ceiling :
>= 8 km
>= 3000ft
5 to 8 km
1000 to 3000 ft
1500m to 5 km
500 to 1000 ft
800 to 1500m
200 to 500 ft
< 800m
< 200 ft
Symbols :   Thunderstorms  Fog  Heavy snow  Heavy precipitations  Wind > 20 kt
SIGMETs :     Misc.  Thunderstorms  Icing  Turbulence  Mountain Waves  Volcanic Ashes






- Airport Elevation : 74 ft
- IATA code : LRH


LFBH - La Rochelle Ile de Ré

CURRENT METAR :
  • 170430Z AUTO 34004KT 4100 -RA BR BKN004/// BKN017/// BKN028/// ///TCU 14/14 Q1010 BECMG 17010KT

EXPIRED METARs :
  • 170400Z AUTO VRB02KT 9999 OVC015/// ///TCU 15/14 Q1010 TEMPO 3000 -RADZ BKN004 OVC010 SCT025TCU
  • 170330Z AUTO 02004KT 350V050 4500 -RA BR BKN006/// OVC017/// ///TCU 15/14 Q1010 TEMPO BKN004 OVC010 SCT025TCU BECMG 17010KT
  • 170300Z AUTO 28005KT 240V330 4400 -RA BR SCT004/// BKN009/// BKN015/// ///TCU 15/15 Q1010 TEMPO BKN004 OVC010 SCT025TCU BECMG 17010KT
  • 170230Z AUTO 17010KT 8000 -RA SCT004/// SCT010/// OVC016/// ///TCU 16/16 Q1010 TEMPO 3000 -RADZ BKN004 OVC010 SCT025TCU
  • 170200Z AUTO 16011KT 9999 -RADZ BKN004/// BKN017/// OVC024/// ///TCU 16/16 Q1010 TEMPO 3000 -RADZ

TAF TAF LFBH
Valid from the 17 at 00:00 until the 18 at 00:00 UTC


162300Z 1700/1724 23008KT 9999 SCT015 OVC025
BECMG 1700/1702 17010KT
TEMPO 1700/1708 -RA OVC013
PROB40
TEMPO 1700/1708 3000 -RADZ BKN004 OVC010 SCT025TCU
TEMPO 1708/1711 BKN005
BECMG 1711/1713 24015KT SCT030
TEMPO 1714/1724 24015G25KT
ATIS : +33 5 46 00 13 92



MET'MAP, your aeronautical weather chart ! - Copyright ORBIFLY December 2007 - Disclaimer

ORBIFLY MET'MAP TEAM :

Programming & Development : Alexandra Zaïnal
Concept & Development : Baudouin d'Aumeries
Co-Development & Prog : Marc-Olivier Méhu
Technical & hardware support : Manuel Goepfert

Contact : metmap@orbifly.com




SOURCES & CREDITS :

   NOAA